sensor_id;sensor_type;location;lat;lon;timestamp;pressure;altitude;pressure_sealevel;temperature;humidity
62791;BME280;48830;53.426;10.300;2023-03-31T00:02:01;100233.72;;;11.63;100.00
62791;BME280;48830;53.426;10.300;2023-03-31T00:04:31;100232.03;;;11.68;100.00
62791;BME280;48830;53.426;10.300;2023-03-31T00:06:57;100231.13;;;11.67;100.00
62791;BME280;48830;53.426;10.300;2023-03-31T00:09:22;100236.31;;;11.63;100.00
62791;BME280;48830;53.426;10.300;2023-03-31T00:11:48;100240.56;;;11.62;100.00
62791;BME280;48830;53.426;10.300;2023-03-31T00:14:15;100228.56;;;11.66;100.00
62791;BME280;48830;53.426;10.300;2023-03-31T00:16:42;100221.72;;;11.63;100.00
62791;BME280;48830;53.426;10.300;2023-03-31T00:19:08;100223.41;;;11.55;100.00
62791;BME280;48830;53.426;10.300;2023-03-31T00:21:37;100218.28;;;11.58;100.00
62791;BME280;48830;53.426;10.300;2023-03-31T00:24:07;100220.00;;;11.65;100.00
62791;BME280;48830;53.426;10.300;2023-03-31T00:26:34;100221.69;;;11.66;100.00
62791;BME280;48830;53.426;10.300;2023-03-31T00:29:03;100209.69;;;11.59;100.00
62791;BME280;48830;53.426;10.300;2023-03-31T00:31:29;100218.28;;;11.64;100.00
62791;BME280;48830;53.426;10.300;2023-03-31T00:33:55;100223.44;;;11.64;100.00
62791;BME280;48830;53.426;10.300;2023-03-31T00:36:21;100213.13;;;11.64;100.00
62791;BME280;48830;53.426;10.300;2023-03-31T00:39:04;100212.28;;;11.70;100.00
62791;BME280;48830;53.426;10.300;2023-03-31T00:41:32;100214.84;;;11.68;100.00
62791;BME280;48830;53.426;10.300;2023-03-31T00:49:22;100208.00;;;11.75;100.00
62791;BME280;48830;53.426;10.300;2023-03-31T00:51:51;100207.97;;;11.70;100.00
62791;BME280;48830;53.426;10.300;2023-03-31T00:54:19;100201.13;;;11.69;100.00
62791;BME280;48830;53.426;10.300;2023-03-31T00:56:47;100195.09;;;11.64;100.00
62791;BME280;48830;53.426;10.300;2023-03-31T00:59:15;100191.66;;;11.57;100.00
62791;BME280;48830;53.426;10.300;2023-03-31T01:01:44;100187.34;;;11.56;100.00
62791;BME280;48830;53.426;10.300;2023-03-31T01:04:10;100190.78;;;11.54;100.00
62791;BME280;48830;53.426;10.300;2023-03-31T01:06:43;100183.06;;;11.51;100.00
62791;BME280;48830;53.426;10.300;2023-03-31T01:09:14;100179.59;;;11.38;100.00
62791;BME280;48830;53.426;10.300;2023-03-31T01:11:42;100173.63;;;11.42;100.00
62791;BME280;48830;53.426;10.300;2023-03-31T01:14:09;100172.75;;;11.37;100.00
62791;BME280;48830;53.426;10.300;2023-03-31T01:16:35;100165.03;;;11.33;100.00
62791;BME280;48830;53.426;10.300;2023-03-31T01:19:06;100163.28;;;11.35;100.00
62791;BME280;48830;53.426;10.300;2023-03-31T01:21:54;100163.28;;;11.28;100.00
62791;BME280;48830;53.426;10.300;2023-03-31T01:42:05;100140.91;;;10.88;100.00
62791;BME280;48830;53.426;10.300;2023-03-31T01:47:09;100134.88;;;10.83;100.00
62791;BME280;48830;53.426;10.300;2023-03-31T01:52:30;100134.84;;;10.72;100.00
62791;BME280;48830;53.426;10.300;2023-03-31T01:55:13;100135.63;;;10.63;100.00
62791;BME280;48830;53.426;10.300;2023-03-31T01:57:46;100134.78;;;10.70;100.00
62791;BME280;48830;53.426;10.300;2023-03-31T02:00:18;100138.22;;;10.62;100.00
62791;BME280;48830;53.426;10.300;2023-03-31T02:03:26;100133.03;;;10.49;100.00
62791;BME280;48830;53.426;10.300;2023-03-31T02:05:57;100122.75;;;10.51;100.00
62791;BME280;48830;53.426;10.300;2023-03-31T02:08:31;100123.63;;;10.59;100.00
62791;BME280;48830;53.426;10.300;2023-03-31T02:10:59;100118.47;;;10.50;100.00
62791;BME280;48830;53.426;10.300;2023-03-31T02:13:26;100110.75;;;10.50;100.00
62791;BME280;48830;53.426;10.300;2023-03-31T02:15:57;100103.84;;;10.43;100.00
62791;BME280;48830;53.426;10.300;2023-03-31T02:18:28;100100.41;;;10.39;100.00
62791;BME280;48830;53.426;10.300;2023-03-31T02:20:56;100099.59;;;10.45;100.00
62791;BME280;48830;53.426;10.300;2023-03-31T02:23:25;100086.72;;;10.43;100.00
62791;BME280;48830;53.426;10.300;2023-03-31T02:26:09;100089.28;;;10.39;100.00
62791;BME280;48830;53.426;10.300;2023-03-31T02:28:37;100080.69;;;10.38;100.00
62791;BME280;48830;53.426;10.300;2023-03-31T02:31:46;100080.66;;;10.32;100.00
62791;BME280;48830;53.426;10.300;2023-03-31T02:34:13;100070.38;;;10.28;100.00
62791;BME280;48830;53.426;10.300;2023-03-31T02:36:41;100072.97;;;10.29;100.00
62791;BME280;48830;53.426;10.300;2023-03-31T02:39:23;100073.78;;;10.27;100.00
62791;BME280;48830;53.426;10.300;2023-03-31T02:41:52;100068.59;;;10.20;100.00
62791;BME280;48830;53.426;10.300;2023-03-31T02:44:19;100060.03;;;10.21;100.00
62791;BME280;48830;53.426;10.300;2023-03-31T02:46:45;100067.75;;;10.21;100.00
62791;BME280;48830;53.426;10.300;2023-03-31T02:49:12;100069.41;;;10.16;100.00
62791;BME280;48830;53.426;10.300;2023-03-31T02:57:31;100050.63;;;10.17;100.00
62791;BME280;48830;53.426;10.300;2023-03-31T03:00:23;100052.31;;;10.15;100.00
62791;BME280;48830;53.426;10.300;2023-03-31T03:05:49;100046.34;;;10.18;100.00
62791;BME280;48830;53.426;10.300;2023-03-31T03:12:04;100034.28;;;10.06;100.00
62791;BME280;48830;53.426;10.300;2023-03-31T03:17:17;100041.09;;;9.99;100.00
62791;BME280;48830;53.426;10.300;2023-03-31T03:19:52;100030.84;;;10.01;100.00
62791;BME280;48830;53.426;10.300;2023-03-31T03:22:18;100035.97;;;10.01;100.00
62791;BME280;48830;53.426;10.300;2023-03-31T03:24:44;100028.25;;;9.99;100.00
62791;BME280;48830;53.426;10.300;2023-03-31T03:27:09;100024.81;;;9.97;100.00
62791;BME280;48830;53.426;10.300;2023-03-31T03:29:34;100025.69;;;9.99;100.00
62791;BME280;48830;53.426;10.300;2023-03-31T03:32:00;100023.97;;;9.97;100.00
62791;BME280;48830;53.426;10.300;2023-03-31T03:34:25;100016.25;;;10.00;100.00
62791;BME280;48830;53.426;10.300;2023-03-31T03:36:51;100019.69;;;10.00;100.00
62791;BME280;48830;53.426;10.300;2023-03-31T03:39:16;100018.84;;;10.00;100.00
62791;BME280;48830;53.426;10.300;2023-03-31T03:41:42;100025.63;;;9.89;100.00
62791;BME280;48830;53.426;10.300;2023-03-31T03:44:07;100021.34;;;9.88;100.00
62791;BME280;48830;53.426;10.300;2023-03-31T03:46:32;100013.69;;;9.95;100.00
62791;BME280;48830;53.426;10.300;2023-03-31T03:48:58;100019.69;;;9.96;100.00
62791;BME280;48830;53.426;10.300;2023-03-31T03:51:23;100010.25;;;9.95;100.00
62791;BME280;48830;53.426;10.300;2023-03-31T03:53:49;100005.13;;;9.95;100.00
62791;BME280;48830;53.426;10.300;2023-03-31T03:56:14;100006.00;;;9.98;100.00
62791;BME280;48830;53.426;10.300;2023-03-31T03:58:40;99995.72;;;9.95;100.00
62791;BME280;48830;53.426;10.300;2023-03-31T04:01:05;99994.00;;;9.97;100.00
62791;BME280;48830;53.426;10.300;2023-03-31T04:03:31;99999.13;;;9.94;100.00
62791;BME280;48830;53.426;10.300;2023-03-31T04:05:56;99999.13;;;9.94;100.00
62791;BME280;48830;53.426;10.300;2023-03-31T04:08:22;99991.44;;;9.96;100.00
62791;BME280;48830;53.426;10.300;2023-03-31T04:10:48;99986.31;;;9.97;100.00
62791;BME280;48830;53.426;10.300;2023-03-31T04:13:15;99992.34;;;10.03;100.00
62791;BME280;48830;53.426;10.300;2023-03-31T04:15:41;99980.31;;;9.98;100.00
62791;BME280;48830;53.426;10.300;2023-03-31T04:18:07;99978.66;;;10.11;100.00
62791;BME280;48830;53.426;10.300;2023-03-31T04:20:37;99967.56;;;10.12;100.00
62791;BME280;48830;53.426;10.300;2023-03-31T04:23:04;99952.16;;;10.18;100.00
62791;BME280;48830;53.426;10.300;2023-03-31T04:25:30;99954.75;;;10.23;100.00
62791;BME280;48830;53.426;10.300;2023-03-31T04:27:56;99959.91;;;10.23;100.00
62791;BME280;48830;53.426;10.300;2023-03-31T04:30:24;99952.22;;;10.28;100.00
62791;BME280;48830;53.426;10.300;2023-03-31T04:32:57;99953.94;;;10.32;100.00
62791;BME280;48830;53.426;10.300;2023-03-31T04:35:24;99945.38;;;10.33;100.00
62791;BME280;48830;53.426;10.300;2023-03-31T04:37:52;99947.09;;;10.31;100.00
62791;BME280;48830;53.426;10.300;2023-03-31T04:40:25;99940.25;;;10.33;100.00
62791;BME280;48830;53.426;10.300;2023-03-31T04:42:51;99928.25;;;10.38;100.00
62791;BME280;48830;53.426;10.300;2023-03-31T04:45:16;99926.56;;;10.40;100.00
62791;BME280;48830;53.426;10.300;2023-03-31T04:47:42;99925.69;;;10.38;100.00
62791;BME280;48830;53.426;10.300;2023-03-31T04:50:08;99923.16;;;10.44;100.00
62791;BME280;48830;53.426;10.300;2023-03-31T04:52:35;99918.03;;;10.53;100.00
62791;BME280;48830;53.426;10.300;2023-03-31T04:55:01;99909.47;;;10.56;100.00
62791;BME280;48830;53.426;10.300;2023-03-31T04:57:27;99906.91;;;10.57;100.00
62791;BME280;48830;53.426;10.300;2023-03-31T04:59:53;99902.63;;;10.62;100.00
62791;BME280;48830;53.426;10.300;2023-03-31T05:02:18;99901.75;;;10.63;100.00
62791;BME280;48830;53.426;10.300;2023-03-31T05:04:50;99899.19;;;10.69;100.00
62791;BME280;48830;53.426;10.300;2023-03-31T05:07:17;99895.78;;;10.66;100.00
62791;BME280;48830;53.426;10.300;2023-03-31T05:09:43;99894.91;;;10.64;100.00
62791;BME280;48830;53.426;10.300;2023-03-31T05:12:09;99900.03;;;10.65;100.00
62791;BME280;48830;53.426;10.300;2023-03-31T05:14:34;99888.91;;;10.63;100.00
62791;BME280;48830;53.426;10.300;2023-03-31T05:17:00;99882.91;;;10.70;100.00
62791;BME280;48830;53.426;10.300;2023-03-31T05:19:25;99882.06;;;10.70;100.00
62791;BME280;48830;53.426;10.300;2023-03-31T05:21:50;99881.19;;;10.80;100.00
62791;BME280;48830;53.426;10.300;2023-03-31T05:24:16;99871.78;;;10.81;100.00
62791;BME280;48830;53.426;10.300;2023-03-31T05:26:41;99867.50;;;10.84;100.00
62791;BME280;48830;53.426;10.300;2023-03-31T05:29:12;99866.63;;;10.81;100.00
62791;BME280;48830;53.426;10.300;2023-03-31T05:31:38;99855.50;;;10.80;100.00
62791;BME280;48830;53.426;10.300;2023-03-31T05:34:03;99848.63;;;10.85;100.00
62791;BME280;48830;53.426;10.300;2023-03-31T05:36:29;99840.06;;;10.86;100.00
62791;BME280;48830;53.426;10.300;2023-03-31T05:38:54;99833.22;;;10.90;100.00
62791;BME280;48830;53.426;10.300;2023-03-31T05:41:19;99834.09;;;10.87;100.00
62791;BME280;48830;53.426;10.300;2023-03-31T05:43:45;99827.25;;;10.82;100.00
62791;BME280;48830;53.426;10.300;2023-03-31T05:46:11;99833.22;;;10.76;100.00
62791;BME280;48830;53.426;10.300;2023-03-31T05:48:36;99836.66;;;10.84;100.00
62791;BME280;48830;53.426;10.300;2023-03-31T05:51:02;99834.09;;;10.83;100.00
62791;BME280;48830;53.426;10.300;2023-03-31T05:53:28;99820.34;;;10.87;100.00
62791;BME280;48830;53.426;10.300;2023-03-31T05:55:58;99831.50;;;10.89;100.00
62791;BME280;48830;53.426;10.300;2023-03-31T05:58:25;99824.66;;;10.89;100.00
62791;BME280;48830;53.426;10.300;2023-03-31T06:01:05;99830.63;;;11.05;100.00
62791;BME280;48830;53.426;10.300;2023-03-31T06:03:36;99823.78;;;11.04;100.00
62791;BME280;48830;53.426;10.300;2023-03-31T06:06:02;99825.47;;;11.11;100.00
62791;BME280;48830;53.426;10.300;2023-03-31T06:08:30;99822.88;;;11.16;100.00
62791;BME280;48830;53.426;10.300;2023-03-31T06:10:56;99812.59;;;11.20;100.00
62791;BME280;48830;53.426;10.300;2023-03-31T06:13:22;99817.72;;;11.22;100.00
62791;BME280;48830;53.426;10.300;2023-03-31T06:15:55;99827.16;;;11.17;100.00
62791;BME280;48830;53.426;10.300;2023-03-31T06:18:21;99819.44;;;11.18;100.00
62791;BME280;48830;53.426;10.300;2023-03-31T06:20:47;99822.03;;;11.09;100.00
62791;BME280;48830;53.426;10.300;2023-03-31T06:23:13;99820.31;;;11.14;100.00
62791;BME280;48830;53.426;10.300;2023-03-31T06:25:38;99814.28;;;11.14;100.00
62791;BME280;48830;53.426;10.300;2023-03-31T06:28:03;99814.31;;;11.15;100.00
62791;BME280;48830;53.426;10.300;2023-03-31T06:30:30;99814.31;;;11.20;100.00
62791;BME280;48830;53.426;10.300;2023-03-31T06:32:56;99815.13;;;11.28;100.00
62791;BME280;48830;53.426;10.300;2023-03-31T06:35:21;99809.97;;;11.33;100.00
62791;BME280;48830;53.426;10.300;2023-03-31T06:37:47;99806.56;;;11.30;100.00
62791;BME280;48830;53.426;10.300;2023-03-31T06:40:12;99809.94;;;11.39;100.00
62791;BME280;48830;53.426;10.300;2023-03-31T06:42:38;99804.81;;;11.33;100.00
62791;BME280;48830;53.426;10.300;2023-03-31T06:45:03;99809.94;;;11.42;100.00
62791;BME280;48830;53.426;10.300;2023-03-31T06:47:29;99808.19;;;11.45;100.00
62791;BME280;48830;53.426;10.300;2023-03-31T06:49:55;99809.94;;;11.42;100.00
62791;BME280;48830;53.426;10.300;2023-03-31T06:52:20;99804.72;;;11.54;100.00
62791;BME280;48830;53.426;10.300;2023-03-31T06:54:45;99810.72;;;11.54;100.00
62791;BME280;48830;53.426;10.300;2023-03-31T06:57:11;99809.88;;;11.54;100.00
62791;BME280;48830;53.426;10.300;2023-03-31T06:59:37;99807.28;;;11.60;100.00
62791;BME280;48830;53.426;10.300;2023-03-31T07:02:02;99799.47;;;11.72;100.00
62791;BME280;48830;53.426;10.300;2023-03-31T07:04:28;99796.00;;;11.81;100.00
62791;BME280;48830;53.426;10.300;2023-03-31T07:06:54;99790.00;;;11.80;100.00
62791;BME280;48830;53.426;10.300;2023-03-31T07:09:20;99801.19;;;11.76;100.00
62791;BME280;48830;53.426;10.300;2023-03-31T07:11:47;99797.78;;;11.71;100.00
62791;BME280;48830;53.426;10.300;2023-03-31T07:14:13;99796.06;;;11.73;100.00
62791;BME280;48830;53.426;10.300;2023-03-31T07:16:38;99788.25;;;11.93;100.00
62791;BME280;48830;53.426;10.300;2023-03-31T07:19:05;99786.56;;;11.83;100.00
62791;BME280;48830;53.426;10.300;2023-03-31T07:21:31;99789.13;;;11.91;100.00
62791;BME280;48830;53.426;10.300;2023-03-31T07:23:56;99784.75;;;11.99;100.00
62791;BME280;48830;53.426;10.300;2023-03-31T07:26:22;99777.97;;;11.90;100.00
62791;BME280;48830;53.426;10.300;2023-03-31T07:28:48;99778.75;;;11.98;100.00
62791;BME280;48830;53.426;10.300;2023-03-31T07:31:14;99783.00;;;12.04;100.00
62791;BME280;48830;53.426;10.300;2023-03-31T07:33:40;99772.75;;;11.98;100.00
62791;BME280;48830;53.426;10.300;2023-03-31T07:36:07;99772.84;;;11.81;100.00
62791;BME280;48830;53.426;10.300;2023-03-31T07:38:33;99774.50;;;11.94;100.00
62791;BME280;48830;53.426;10.300;2023-03-31T07:40:58;99765.00;;;12.04;100.00
62791;BME280;48830;53.426;10.300;2023-03-31T07:43:24;99769.25;;;12.09;100.00
62791;BME280;48830;53.426;10.300;2023-03-31T07:45:50;99760.69;;;12.04;100.00
62791;BME280;48830;53.426;10.300;2023-03-31T07:48:15;99764.03;;;12.17;100.00
62791;BME280;48830;53.426;10.300;2023-03-31T07:50:41;99764.88;;;12.19;100.00
62791;BME280;48830;53.426;10.300;2023-03-31T07:53:14;99751.88;;;12.34;100.00
62791;BME280;48830;53.426;10.300;2023-03-31T07:55:39;99757.91;;;12.30;100.00
62791;BME280;48830;53.426;10.300;2023-03-31T07:58:05;99752.78;;;12.29;100.00
62791;BME280;48830;53.426;10.300;2023-03-31T08:00:30;99752.69;;;12.37;100.00
62791;BME280;48830;53.426;10.300;2023-03-31T08:02:56;99751.06;;;12.29;100.00
62791;BME280;48830;53.426;10.300;2023-03-31T08:05:22;99751.22;;;12.08;100.00
62791;BME280;48830;53.426;10.300;2023-03-31T08:07:49;99748.63;;;12.13;100.00
62791;BME280;48830;53.426;10.300;2023-03-31T08:10:20;99737.56;;;11.97;100.00
62791;BME280;48830;53.426;10.300;2023-03-31T08:12:45;99745.16;;;12.15;100.00
62791;BME280;48830;53.426;10.300;2023-03-31T08:15:11;99744.34;;;12.08;100.00
62791;BME280;48830;53.426;10.300;2023-03-31T08:17:37;99733.22;;;12.05;100.00
62791;BME280;48830;53.426;10.300;2023-03-31T08:20:04;99732.22;;;12.21;100.00
62791;BME280;48830;53.426;10.300;2023-03-31T08:22:37;99727.09;;;12.18;100.00
62791;BME280;48830;53.426;10.300;2023-03-31T08:25:05;99733.22;;;12.03;100.00
62791;BME280;48830;53.426;10.300;2023-03-31T08:27:33;99728.84;;;12.16;100.00
62791;BME280;48830;53.426;10.300;2023-03-31T08:29:59;99732.28;;;12.15;100.00
62791;BME280;48830;53.426;10.300;2023-03-31T08:32:30;99723.66;;;12.22;100.00
62791;BME280;48830;53.426;10.300;2023-03-31T08:34:55;99720.19;;;12.23;100.00
62791;BME280;48830;53.426;10.300;2023-03-31T08:37:20;99727.06;;;12.24;100.00
62791;BME280;48830;53.426;10.300;2023-03-31T08:39:46;99718.66;;;11.99;100.00
62791;BME280;48830;53.426;10.300;2023-03-31T08:42:27;99717.75;;;12.08;100.00
62791;BME280;48830;53.426;10.300;2023-03-31T08:45:02;99715.97;;;12.13;100.00
62791;BME280;48830;53.426;10.300;2023-03-31T08:47:30;99711.69;;;12.14;100.00
62791;BME280;48830;53.426;10.300;2023-03-31T08:49:59;99710.06;;;12.02;100.00
62791;BME280;48830;53.426;10.300;2023-03-31T08:52:40;99709.38;;;11.74;100.00
62791;BME280;48830;53.426;10.300;2023-03-31T08:55:12;99702.50;;;11.79;100.00
62791;BME280;48830;53.426;10.300;2023-03-31T08:57:54;99694.63;;;12.02;100.00
62791;BME280;48830;53.426;10.300;2023-03-31T09:00:22;99698.00;;;12.07;100.00
62791;BME280;48830;53.426;10.300;2023-03-31T09:02:59;99698.03;;;12.05;100.00
62791;BME280;48830;53.426;10.300;2023-03-31T09:05:59;99684.31;;;12.02;100.00
62791;BME280;48830;53.426;10.300;2023-03-31T09:08:37;99684.28;;;12.03;100.00
62791;BME280;48830;53.426;10.300;2023-03-31T09:11:12;99678.25;;;12.07;100.00
62791;BME280;48830;53.426;10.300;2023-03-31T09:16:13;99681.69;;;12.05;100.00
62791;BME280;48830;53.426;10.300;2023-03-31T09:18:40;99669.81;;;11.90;100.00
62791;BME280;48830;53.426;10.300;2023-03-31T09:21:37;99662.84;;;12.01;100.00
62791;BME280;48830;53.426;10.300;2023-03-31T09:24:15;99662.78;;;12.09;100.00
62791;BME280;48830;53.426;10.300;2023-03-31T09:26:53;99668.91;;;11.96;100.00
62791;BME280;48830;53.426;10.300;2023-03-31T09:29:30;99657.66;;;12.06;100.00
62791;BME280;48830;53.426;10.300;2023-03-31T09:32:19;99654.22;;;12.07;100.00
62791;BME280;48830;53.426;10.300;2023-03-31T09:34:46;99650.72;;;12.13;100.00
62791;BME280;48830;53.426;10.300;2023-03-31T09:37:14;99643.03;;;12.11;100.00
62791;BME280;48830;53.426;10.300;2023-03-31T09:39:40;99643.84;;;12.13;100.00
62791;BME280;48830;53.426;10.300;2023-03-31T09:42:06;99635.22;;;12.16;100.00
62791;BME280;48830;53.426;10.300;2023-03-31T09:44:43;99630.16;;;12.11;100.00
62791;BME280;48830;53.426;10.300;2023-03-31T09:47:18;99641.22;;;12.19;100.00
62791;BME280;48830;53.426;10.300;2023-03-31T09:49:45;99634.28;;;12.24;100.00
62791;BME280;48830;53.426;10.300;2023-03-31T09:54:49;99625.75;;;12.19;100.00
62791;BME280;48830;53.426;10.300;2023-03-31T09:57:27;99618.91;;;12.18;100.00
62791;BME280;48830;53.426;10.300;2023-03-31T10:00:20;99626.53;;;12.26;100.00
62791;BME280;48830;53.426;10.300;2023-03-31T10:02:56;99621.44;;;12.23;100.00
62791;BME280;48830;53.426;10.300;2023-03-31T10:05:29;99623.84;;;12.37;100.00
62791;BME280;48830;53.426;10.300;2023-03-31T10:10:43;99619.56;;;12.35;100.00
62791;BME280;48830;53.426;10.300;2023-03-31T10:13:13;99614.44;;;12.34;100.00
62791;BME280;48830;53.426;10.300;2023-03-31T10:15:40;99614.44;;;12.35;100.00
62791;BME280;48830;53.426;10.300;2023-03-31T10:18:12;99609.31;;;12.31;100.00
62791;BME280;48830;53.426;10.300;2023-03-31T10:20:41;99606.84;;;12.20;100.00
62791;BME280;48830;53.426;10.300;2023-03-31T10:23:16;99601.59;;;12.29;100.00
62791;BME280;48830;53.426;10.300;2023-03-31T10:25:42;99595.28;;;12.56;100.00
62791;BME280;48830;53.426;10.300;2023-03-31T10:28:11;99597.00;;;12.56;100.00
62791;BME280;48830;53.426;10.300;2023-03-31T10:30:37;99587.44;;;12.67;100.00
62791;BME280;48830;53.426;10.300;2023-03-31T10:33:15;99591.81;;;12.59;100.00
62791;BME280;48830;53.426;10.300;2023-03-31T10:35:42;99588.13;;;12.78;100.00
62791;BME280;48830;53.426;10.300;2023-03-31T10:38:14;99587.44;;;12.64;100.00
62791;BME280;48830;53.426;10.300;2023-03-31T10:40:50;99580.50;;;12.72;100.00
62791;BME280;48830;53.426;10.300;2023-03-31T10:43:24;99579.91;;;12.47;100.00
62791;BME280;48830;53.426;10.300;2023-03-31T10:45:51;99578.97;;;12.56;100.00
62791;BME280;48830;53.426;10.300;2023-03-31T10:51:19;99578.16;;;12.52;100.00
62791;BME280;48830;53.426;10.300;2023-03-31T10:53:53;99573.75;;;12.62;100.00
62791;BME280;48830;53.426;10.300;2023-03-31T10:56:39;99569.50;;;12.56;100.00
62791;BME280;48830;53.426;10.300;2023-03-31T11:02:48;99561.06;;;12.45;100.00
62791;BME280;48830;53.426;10.300;2023-03-31T11:05:24;99560.03;;;12.58;100.00
62791;BME280;48830;53.426;10.300;2023-03-31T11:18:42;99549.06;;;12.41;100.00
62791;BME280;48830;53.426;10.300;2023-03-31T11:21:19;99549.13;;;12.38;100.00
62791;BME280;48830;53.426;10.300;2023-03-31T11:26:28;99539.69;;;12.35;100.00
62791;BME280;48830;53.426;10.300;2023-03-31T11:29:19;99545.50;;;12.51;100.00
62791;BME280;48830;53.426;10.300;2023-03-31T11:35:17;99540.47;;;12.42;100.00
62791;BME280;48830;53.426;10.300;2023-03-31T11:38:23;99534.31;;;12.55;100.00
62791;BME280;48830;53.426;10.300;2023-03-31T11:46:27;99525.06;;;12.39;100.00
62791;BME280;48830;53.426;10.300;2023-03-31T11:49:05;99522.53;;;12.34;100.00
62791;BME280;48830;53.426;10.300;2023-03-31T11:54:18;99520.66;;;12.46;100.00
62791;BME280;48830;53.426;10.300;2023-03-31T11:56:45;99513.13;;;12.30;100.00
62791;BME280;48830;53.426;10.300;2023-03-31T11:59:15;99511.34;;;12.35;100.00
62791;BME280;48830;53.426;10.300;2023-03-31T12:04:40;99511.56;;;12.19;100.00
62791;BME280;48830;53.426;10.300;2023-03-31T12:07:21;99510.72;;;12.18;100.00
62791;BME280;48830;53.426;10.300;2023-03-31T12:09:52;99507.31;;;12.16;100.00
62791;BME280;48830;53.426;10.300;2023-03-31T12:12:27;99503.88;;;12.14;100.00
62791;BME280;48830;53.426;10.300;2023-03-31T12:15:09;99503.94;;;12.11;100.00
62791;BME280;48830;53.426;10.300;2023-03-31T12:17:38;99499.56;;;12.16;100.00
62791;BME280;48830;53.426;10.300;2023-03-31T12:20:34;99486.66;;;12.19;100.00
62791;BME280;48830;53.426;10.300;2023-03-31T12:23:00;99488.47;;;12.11;100.00
62791;BME280;48830;53.426;10.300;2023-03-31T12:28:14;99485.69;;;12.28;100.00
62791;BME280;48830;53.426;10.300;2023-03-31T12:30:41;99478.00;;;12.23;100.00
62791;BME280;48830;53.426;10.300;2023-03-31T12:36:09;99471.09;;;12.28;100.00
62791;BME280;48830;53.426;10.300;2023-03-31T12:45:00;99464.00;;;12.44;100.00
62791;BME280;48830;53.426;10.300;2023-03-31T12:47:52;99453.53;;;12.53;100.00
62791;BME280;48830;53.426;10.300;2023-03-31T12:56:12;99451.59;;;12.71;100.00
62791;BME280;48830;53.426;10.300;2023-03-31T12:58:40;99451.47;;;12.78;100.00
62791;BME280;48830;53.426;10.300;2023-03-31T13:01:08;99447.91;;;12.85;100.00
62791;BME280;48830;53.426;10.300;2023-03-31T13:09:01;99434.84;;;12.96;100.00
62791;BME280;48830;53.426;10.300;2023-03-31T13:14:00;99428.13;;;12.86;100.00
62791;BME280;48830;53.426;10.300;2023-03-31T13:16:31;99427.38;;;12.81;100.00
62791;BME280;48830;53.426;10.300;2023-03-31T13:18:57;99426.28;;;12.94;100.00
62791;BME280;48830;53.426;10.300;2023-03-31T13:21:23;99417.81;;;12.86;100.00
62791;BME280;48830;53.426;10.300;2023-03-31T13:23:49;99420.41;;;12.87;100.00
62791;BME280;48830;53.426;10.300;2023-03-31T13:34:26;99410.47;;;12.61;100.00
62791;BME280;48830;53.426;10.300;2023-03-31T13:37:07;99406.84;;;12.73;100.00
62791;BME280;48830;53.426;10.300;2023-03-31T13:48:31;99399.88;;;12.80;100.00
62791;BME280;48830;53.426;10.300;2023-03-31T13:54:12;99412.16;;;12.64;100.00
62791;BME280;48830;53.426;10.300;2023-03-31T13:59:32;99395.41;;;12.90;100.00
62791;BME280;48830;53.426;10.300;2023-03-31T14:02:39;99396.81;;;13.09;100.00
62791;BME280;48830;53.426;10.300;2023-03-31T14:07:51;99390.34;;;13.34;100.00
62791;BME280;48830;53.426;10.300;2023-03-31T14:10:25;99393.03;;;13.30;100.00
62791;BME280;48830;53.426;10.300;2023-03-31T14:13:03;99397.13;;;13.42;100.00
62791;BME280;48830;53.426;10.300;2023-03-31T14:15:29;99386.81;;;13.42;100.00
62791;BME280;48830;53.426;10.300;2023-03-31T14:17:55;99388.75;;;13.74;100.00
62791;BME280;48830;53.426;10.300;2023-03-31T14:23:47;99389.94;;;14.39;100.00
62791;BME280;48830;53.426;10.300;2023-03-31T14:26:47;99392.31;;;14.10;100.00
62791;BME280;48830;53.426;10.300;2023-03-31T14:29:30;99387.78;;;14.19;100.00
62791;BME280;48830;53.426;10.300;2023-03-31T14:32:16;99390.06;;;13.93;100.00
62791;BME280;48830;53.426;10.300;2023-03-31T14:34:55;99382.22;;;13.99;100.00
62791;BME280;48830;53.426;10.300;2023-03-31T14:37:25;99381.06;;;14.12;100.00
62791;BME280;48830;53.426;10.300;2023-03-31T14:39:53;99377.53;;;14.16;100.00
62791;BME280;48830;53.426;10.300;2023-03-31T14:42:26;99375.31;;;14.38;100.00
62791;BME280;48830;53.426;10.300;2023-03-31T14:45:00;99370.91;;;14.05;100.00
62791;BME280;48830;53.426;10.300;2023-03-31T14:47:27;99378.75;;;14.00;100.00
62791;BME280;48830;53.426;10.300;2023-03-31T14:50:16;99375.22;;;14.03;100.00
62791;BME280;48830;53.426;10.300;2023-03-31T14:52:47;99372.56;;;13.67;100.00
62791;BME280;48830;53.426;10.300;2023-03-31T14:55:15;99374.84;;;13.81;100.00
62791;BME280;48830;53.426;10.300;2023-03-31T14:57:43;99373.31;;;13.72;100.00
62791;BME280;48830;53.426;10.300;2023-03-31T15:00:13;99370.91;;;13.63;100.00
62791;BME280;48830;53.426;10.300;2023-03-31T15:02:43;99376.31;;;13.51;100.00
62791;BME280;48830;53.426;10.300;2023-03-31T15:05:36;99372.72;;;13.58;100.00
62791;BME280;48830;53.426;10.300;2023-03-31T15:08:17;99368.66;;;13.46;100.00
62791;BME280;48830;53.426;10.300;2023-03-31T15:10:49;99370.91;;;13.63;100.00
62791;BME280;48830;53.426;10.300;2023-03-31T15:13:27;99373.75;;;13.49;100.00
62791;BME280;48830;53.426;10.300;2023-03-31T15:15:54;99369.72;;;13.34;100.00